Airfield :
LOGIN :

Register | Disclaimer

   EN    FR    IT 

 










Legend :    VFR   Marginal VFR   IFR   Intensive IFR   Very Intensive IFR
Visi :
Ceiling :
>= 8 km
>= 3000ft
5 to 8 km
1000 to 3000 ft
1500m to 5 km
500 to 1000 ft
800 to 1500m
200 to 500 ft
< 800m
< 200 ft
Symbols :   Thunderstorms  Fog  Heavy snow  Heavy precipitations  Wind > 20 kt
SIGMETs :     Misc.  Thunderstorms  Icing  Turbulence  Mountain Waves  Volcanic Ashes







- Airport Elevation : 479 ft
- IATA code : DOL
- Download approach charts


LFRG - Deauville

CURRENT METAR :
  • 161730Z AUTO 35008KT 300V030 9999 OVC007 17/15 Q1016 TEMPO 2500 RA BKN004 BKN020TCU

EXPIRED METARs :
  • 161700Z AUTO 34008KT 300V010 9999 BKN006 BKN070 BKN150 17/16 Q1016 TEMPO 2500 RA BKN004 BKN020TCU
  • 161630Z AUTO 34007KT 300V010 9999 BKN005 OVC023 18/16 Q1016 TEMPO 2500 RA BKN004 BKN020TCU
  • 161600Z AUTO 33009KT 290V020 9999 OVC006 18/16 Q1016 TEMPO 3000 RA BKN010 BKN020TCU
  • 161530Z AUTO 34008KT 290V020 9999 BKN011 OVC180 19/16 Q1016 TEMPO 3000 RA BKN010 BKN020TCU
  • 161500Z AUTO 33007KT 290V010 9999 SCT012 BKN230 20/16 Q1016 TEMPO 3000 RA BKN010 BKN020TCU

TAF AMD TAF LFRG
Valid from the 16 at 16:00 until the 17 at 00:00 UTC


161611Z 1616/1624 33010KT 9999 BKN020
TEMPO 1616/1620 2500 RA BKN004 BKN020TCU
ATIS : +33 2 31 65 65 36
No reported NOTAMs for that airfield.



MET'MAP, your aeronautical weather chart ! - Copyright ORBIFLY December 2007 - Disclaimer

ORBIFLY MET'MAP TEAM :

Programming & Development : Alexandra Zaïnal
Concept & Development : Baudouin d'Aumeries
Co-Development & Prog : Marc-Olivier Méhu
Technical & hardware support : Manuel Goepfert

Contact : metmap@orbifly.com




SOURCES & CREDITS :

   NOAA